Weather at Cape Decision C. G. Heliport

Public forecast

Using degrees Fahrenheit for public forecast. Weather courtesy of forecast.io.

Closest aviation weather report (METAR) to Cape Decision C. G. Heliport

Report is more than 6 hours old.

Closest report is Port Alexander Seaplane Base, 22.6 nm (41.8 km) NW. Retrieved 2015/11/17 19:58 UTC (5 years ago):

PAAP 171958Z VRB02KT 10SM SCT035 03/M00 A2950 RMK LAST NO SPECI

Closest aviation forecast (TAF) to Cape Decision C. G. Heliport

Closest forecast is Klawock Airport, 43.9 nm (81.2 km) SE. Retrieved 2020/09/19 06:40 UTC (3 hours ago):

TAF PAKW 190538Z 1906/2006 22002KT 6SM -RA BR FEW005 BKN015 OVC025 TEMPO 1906/1908 3SM -RA BR BKN005 OVC015 FM191200 23005KT P6SM BCFG FEW005 SCT025 OVC070 FM191900 23007KT P6SM SCT025 BKN060 AMD LTD TO CLD VIS AND WIND